Time;durP1;ratioP1;P1;durP2;ratioP2;P2;SDS_P1;SDS_P2;PMS_P1;PMS_P2;Temp;Humidity;BMP_temperature;BMP_pressure;BME280_temperature;BME280_humidity;BME280_pressure;Samples;Min_cycle;Max_cycle;Signal;HPM_P1;HPM_P2
2024/03/02 00:00:51;;;;;;;2.00;1.50;;;23.20;99.90;;;;;;4954450;28;20024;-48
2024/03/02 00:03:18;;;;;;;3.92;2.03;;;23.10;99.90;;;;;;4954110;28;20602;-48
2024/03/02 00:05:48;;;;;;;3.58;1.92;;;23.10;99.90;;;;;;4954726;28;20034;-47
2024/03/02 00:08:22;;;;;;;2.90;2.00;;;23.10;99.90;;;;;;4954017;28;20410;-49
2024/03/02 00:10:48;;;;;;;4.60;2.47;;;23.10;99.90;;;;;;4953871;28;20027;-49
2024/03/02 00:13:14;;;;;;;4.78;2.10;;;23.10;99.90;;;;;;4953943;29;20511;-48
2024/03/02 00:15:54;;;;;;;2.58;2.13;;;23.10;99.90;;;;;;4937137;28;20392;-47
2024/03/02 00:18:32;;;;;;;3.75;1.77;;;23.10;99.90;;;;;;4923905;29;20457;-48
2024/03/02 00:20:58;;;;;;;2.67;1.88;;;23.10;99.90;;;;;;4954089;28;20055;-48
2024/03/02 00:23:27;;;;;;;3.05;1.83;;;23.10;99.90;;;;;;4954275;28;20093;-47
2024/03/02 00:25:54;;;;;;;4.80;2.67;;;23.00;99.90;;;;;;4954099;28;20016;-47
2024/03/02 00:28:34;;;;;;;4.18;2.47;;;23.00;99.90;;;;;;4954022;28;20118;-47
2024/03/02 00:31:08;;;;;;;3.17;1.83;;;23.00;99.90;;;;;;4937555;29;20058;-47
2024/03/02 00:33:52;;;;;;;3.00;1.92;;;22.90;99.90;;;;;;4954146;29;20376;-47
2024/03/02 00:36:27;;;;;;;4.28;2.10;;;22.90;99.90;;;;;;4953750;29;20110;-49
2024/03/02 00:38:54;;;;;;;6.22;2.78;;;22.90;99.90;;;;;;4927990;29;20467;-49
2024/03/02 00:41:29;;;;;;;4.73;2.20;;;22.90;99.90;;;;;;4954126;28;20122;-49
2024/03/02 00:43:55;;;;;;;3.28;2.13;;;22.90;99.90;;;;;;4935684;29;20047;-49
2024/03/02 00:46:23;;;;;;;3.03;2.08;;;22.90;99.90;;;;;;4953961;28;20054;-49
2024/03/02 00:48:54;;;;;;;;;;;22.90;99.90;;;;;;4954173;28;20356;-52
2024/03/02 00:51:21;;;;;;;2.08;1.42;;;22.90;99.90;;;;;;4953762;29;19906;-48
2024/03/02 00:53:47;;;;;;;2.97;2.17;;;22.80;99.90;;;;;;4953779;28;20498;-53
2024/03/02 00:56:14;;;;;;;4.28;1.83;;;22.80;99.90;;;;;;4936630;29;20039;-48
2024/03/02 00:58:40;;;;;;;2.08;1.58;;;22.80;99.90;;;;;;4953237;28;20016;-49
2024/03/02 01:01:07;;;;;;;2.33;2.08;;;22.80;99.90;;;;;;4953632;28;20383;-49
2024/03/02 01:03:34;;;;;;;3.40;1.65;;;22.80;99.90;;;;;;4952988;28;20047;-49
2024/03/02 01:06:00;;;;;;;6.40;1.90;;;22.80;99.90;;;;;;4953616;28;20023;-48
2024/03/02 01:08:26;;;;;;;2.67;1.80;;;22.80;99.90;;;;;;4954021;28;20031;-50
2024/03/02 01:10:52;;;;;;;5.50;1.55;;;22.80;99.90;;;;;;4953710;28;20106;-49
2024/03/02 01:13:18;;;;;;;3.53;1.90;;;22.70;99.90;;;;;;4952620;28;20146;-47
2024/03/02 01:15:43;;;;;;;3.13;1.90;;;22.70;99.90;;;;;;4953144;28;20075;-47
2024/03/02 01:18:09;;;;;;;2.58;1.73;;;22.70;99.90;;;;;;4953019;28;20019;-48
2024/03/02 01:20:36;;;;;;;3.20;1.92;;;22.70;99.90;;;;;;4947446;28;20027;-47
2024/03/02 01:23:01;;;;;;;3.13;1.85;;;22.70;99.90;;;;;;4935521;29;20410;-48
2024/03/02 01:25:27;;;;;;;3.97;2.00;;;22.70;99.90;;;;;;4953465;28;20110;-47
2024/03/02 01:27:53;;;;;;;2.60;1.73;;;22.70;99.90;;;;;;4953314;28;20394;-46
2024/03/02 01:30:19;;;;;;;2.38;1.58;;;22.70;99.90;;;;;;4953687;28;20035;-44
2024/03/02 01:32:44;;;;;;;3.05;1.88;;;22.60;99.90;;;;;;4953664;28;20023;-44
2024/03/02 01:35:10;;;;;;;5.45;1.80;;;22.60;99.90;;;;;;4953542;28;20023;-44
2024/03/02 01:37:36;;;;;;;2.42;1.40;;;22.60;99.90;;;;;;4954411;28;20019;-43
2024/03/02 01:40:02;;;;;;;2.13;1.50;;;22.60;99.90;;;;;;4956855;28;20019;-42
2024/03/02 01:42:28;;;;;;;3.00;1.95;;;22.60;99.90;;;;;;4956321;28;20050;-43
2024/03/02 01:44:54;;;;;;;11.73;2.10;;;22.60;99.90;;;;;;4957255;28;20395;-42
2024/03/02 01:47:20;;;;;;;2.65;1.77;;;22.60;99.90;;;;;;4956776;29;20040;-43
2024/03/02 01:49:46;;;;;;;2.08;1.63;;;22.60;99.90;;;;;;4956863;28;20027;-43
2024/03/02 01:52:12;;;;;;;2.70;1.75;;;22.60;99.90;;;;;;4948606;28;20035;-43
2024/03/02 01:54:37;;;;;;;3.78;1.70;;;22.60;99.90;;;;;;4956691;29;20015;-43
2024/03/02 01:57:04;;;;;;;2.80;2.08;;;22.60;99.90;;;;;;4956311;28;20400;-42
2024/03/02 01:59:29;;;;;;;5.28;1.73;;;22.50;99.90;;;;;;4956366;28;20034;-42
2024/03/02 02:01:55;;;;;;;2.85;1.77;;;22.50;99.90;;;;;;4957223;28;20051;-42
2024/03/02 02:04:26;;;;;;;2.63;1.60;;;22.50;99.90;;;;;;4956436;28;20027;-48
2024/03/02 02:06:53;;;;;;;3.15;1.60;;;22.50;99.90;;;;;;4956644;28;20031;-42
2024/03/02 02:09:18;;;;;;;2.70;1.70;;;22.50;99.90;;;;;;4956294;28;20063;-43
2024/03/02 02:11:44;;;;;;;4.53;1.40;;;22.50;99.90;;;;;;4956606;28;20031;-43
2024/03/02 02:14:11;;;;;;;2.58;1.70;;;22.50;99.90;;;;;;4938933;29;20023;-44
2024/03/02 02:16:37;;;;;;;3.55;1.65;;;22.50;99.90;;;;;;4956613;28;20079;-44
2024/03/02 02:19:03;;;;;;;4.65;1.77;;;22.40;99.90;;;;;;4956619;28;20476;-42
2024/03/02 02:21:28;;;;;;;2.88;1.92;;;22.40;99.90;;;;;;4950799;28;20039;-41
2024/03/02 02:23:54;;;;;;;2.55;1.50;;;22.40;99.90;;;;;;4966753;28;20113;-42
2024/03/02 02:26:20;;;;;;;2.15;1.33;;;22.40;99.90;;;;;;4974556;28;20027;-41
2024/03/02 02:28:48;;;;;;;3.05;1.58;;;22.40;99.90;;;;;;4958744;28;20023;-41
2024/03/02 02:31:14;;;;;;;3.65;1.70;;;22.40;99.90;;;;;;4968828;28;20030;-41
2024/03/02 02:33:40;;;;;;;2.55;1.65;;;22.40;99.90;;;;;;4972230;28;20027;-42
2024/03/02 02:36:06;;;;;;;2.58;1.40;;;22.40;99.90;;;;;;4958144;28;20046;-42
2024/03/02 02:38:35;;;;;;;2.70;1.63;;;22.30;99.90;;;;;;4971347;28;20039;-41
2024/03/02 02:41:01;;;;;;;2.50;1.58;;;22.30;99.90;;;;;;4969055;28;20023;-41
2024/03/02 02:43:26;;;;;;;3.20;1.35;;;22.30;99.90;;;;;;4957895;28;20475;-42
2024/03/02 02:45:52;;;;;;;4.50;1.80;;;22.30;99.90;;;;;;4965760;28;20527;-41
2024/03/02 02:48:18;;;;;;;5.85;1.67;;;22.30;99.90;;;;;;4957560;28;20177;-41
2024/03/02 02:50:43;;;;;;;3.72;1.75;;;22.20;99.90;;;;;;4974562;28;20459;-41
2024/03/02 02:53:09;;;;;;;3.70;1.75;;;22.30;99.90;;;;;;4936081;29;20106;-42
2024/03/02 02:55:40;;;;;;;2.72;1.58;;;22.20;99.90;;;;;;4939160;29;20110;-40
2024/03/02 02:58:06;;;;;;;3.03;1.67;;;22.20;99.90;;;;;;4954923;28;20364;-40
2024/03/02 03:00:32;;;;;;;3.03;1.20;;;22.20;99.90;;;;;;4956720;28;20027;-42
2024/03/02 03:02:58;;;;;;;3.90;1.40;;;22.20;99.90;;;;;;4955670;28;20384;-41
2024/03/02 03:05:24;;;;;;;2.03;1.40;;;22.10;99.90;;;;;;4938547;29;20034;-41
2024/03/02 03:07:50;;;;;;;4.55;1.58;;;22.10;99.90;;;;;;4955731;29;20023;-41
2024/03/02 03:10:16;;;;;;;5.38;1.90;;;22.10;99.90;;;;;;4955703;28;20020;-41
2024/03/02 03:12:43;;;;;;;2.38;1.58;;;22.10;99.90;;;;;;4955698;29;20019;-41
2024/03/02 03:15:10;;;;;;;3.42;2.10;;;22.10;99.90;;;;;;4955714;28;20488;-41
2024/03/02 03:17:37;;;;;;;3.40;1.30;;;22.10;99.90;;;;;;4955801;29;20063;-41
2024/03/02 03:20:04;;;;;;;3.28;1.70;;;22.10;99.90;;;;;;4938600;29;20039;-41
2024/03/02 03:22:31;;;;;;;2.80;1.33;;;22.00;99.90;;;;;;4965624;28;20034;-41
2024/03/02 03:24:57;;;;;;;2.42;1.20;;;22.00;99.90;;;;;;4974965;28;20066;-40
2024/03/02 03:27:22;;;;;;;2.25;1.50;;;22.00;99.90;;;;;;4974930;28;20054;-41
2024/03/02 03:29:48;;;;;;;2.30;1.40;;;22.00;99.90;;;;;;4968503;28;20416;-41
2024/03/02 03:32:14;;;;;;;4.35;1.52;;;22.00;99.90;;;;;;4938020;29;20047;-41
2024/03/02 03:34:40;;;;;;;2.70;1.42;;;22.00;99.90;;;;;;4938179;28;20015;-40
2024/03/02 03:37:06;;;;;;;2.42;1.27;;;21.90;99.90;;;;;;4953540;29;20027;-41
2024/03/02 03:39:35;;;;;;;2.15;1.23;;;21.90;99.90;;;;;;4936377;29;20034;-40
2024/03/02 03:42:01;;;;;;;3.17;1.52;;;21.90;99.90;;;;;;4954989;28;20602;-40
2024/03/02 03:44:27;;;;;;;3.25;1.52;;;21.90;99.90;;;;;;4974430;28;20106;-41
2024/03/02 03:46:52;;;;;;;2.70;1.45;;;21.90;99.90;;;;;;4969813;28;20027;-41
2024/03/02 03:49:18;;;;;;;1.63;1.25;;;21.90;99.90;;;;;;4974521;28;20035;-40
2024/03/02 03:51:44;;;;;;;2.42;1.52;;;21.90;99.90;;;;;;4974248;28;20034;-40
2024/03/02 03:54:11;;;;;;;3.92;1.60;;;21.80;99.90;;;;;;4969403;28;20114;-41
2024/03/02 03:56:37;;;;;;;3.53;1.60;;;21.80;99.90;;;;;;4954696;29;20020;-41
2024/03/02 03:59:03;;;;;;;3.08;1.33;;;21.80;99.90;;;;;;4952771;29;20452;-42
2024/03/02 04:01:31;;;;;;;2.08;1.27;;;21.80;99.90;;;;;;4949206;28;20065;-41
2024/03/02 04:03:57;;;;;;;2.42;1.40;;;21.80;99.90;;;;;;4940804;29;20681;-41
2024/03/02 04:06:23;;;;;;;5.03;1.85;;;21.80;99.90;;;;;;4947248;28;20036;-41
2024/03/02 04:08:49;;;;;;;1.77;1.15;;;21.80;99.90;;;;;;4921764;29;20110;-42
2024/03/02 04:11:15;;;;;;;3.15;1.42;;;21.70;99.90;;;;;;4950964;28;20042;-42
2024/03/02 04:13:41;;;;;;;3.53;1.60;;;21.70;99.90;;;;;;4954742;29;20028;-40
2024/03/02 04:16:06;;;;;;;2.45;1.65;;;21.70;99.90;;;;;;4954474;29;20110;-41
2024/03/02 04:18:32;;;;;;;2.92;1.60;;;21.70;99.90;;;;;;4954514;29;20030;-42
2024/03/02 04:21:01;;;;;;;2.85;1.60;;;21.70;99.90;;;;;;4961196;28;20031;-41
2024/03/02 04:23:27;;;;;;;2.80;1.38;;;21.70;99.90;;;;;;4973745;28;20061;-41
2024/03/02 04:25:53;;;;;;;1.77;1.10;;;21.70;99.90;;;;;;4961915;28;20457;-41
2024/03/02 04:28:19;;;;;;;2.65;1.35;;;21.70;99.90;;;;;;4935415;29;20054;-41
2024/03/02 04:30:44;;;;;;;2.65;1.38;;;21.70;99.90;;;;;;4937787;29;20031;-41
2024/03/02 04:33:10;;;;;;;1.98;1.30;;;21.60;99.90;;;;;;4935179;29;20031;-41
2024/03/02 04:35:39;;;;;;;2.17;1.40;;;21.60;99.90;;;;;;4924223;29;20071;-41
2024/03/02 04:38:05;;;;;;;3.83;1.52;;;21.60;99.90;;;;;;4954414;28;20031;-41
2024/03/02 04:40:32;;;;;;;3.72;1.08;;;21.60;99.90;;;;;;4953653;29;20027;-42
2024/03/02 04:42:59;;;;;;;3.15;1.40;;;21.60;99.90;;;;;;4954274;29;20122;-42
2024/03/02 04:45:24;;;;;;;3.90;1.55;;;21.60;99.90;;;;;;4949839;29;20027;-42
2024/03/02 04:47:50;;;;;;;2.13;1.20;;;21.50;99.90;;;;;;4918058;29;20031;-42
2024/03/02 04:50:16;;;;;;;2.70;1.45;;;21.50;99.90;;;;;;4921159;29;20110;-41
2024/03/02 04:52:42;;;;;;;3.45;1.42;;;21.50;99.90;;;;;;4935215;29;20039;-42
2024/03/02 04:55:24;;;;;;;2.50;1.35;;;21.50;99.90;;;;;;4951719;29;20025;-42
2024/03/02 04:57:54;;;;;;;2.50;1.30;;;21.50;99.90;;;;;;4935050;29;20027;-42
2024/03/02 05:00:20;;;;;;;2.00;0.93;;;21.50;99.90;;;;;;4935460;29;20028;-42
2024/03/02 05:02:46;;;;;;;1.48;1.20;;;21.50;99.90;;;;;;4934704;29;20048;-42
2024/03/02 05:05:12;;;;;;;2.40;1.00;;;21.50;99.90;;;;;;4946044;29;20019;-41
2024/03/02 05:07:38;;;;;;;3.28;1.30;;;21.50;99.90;;;;;;4935066;29;20043;-43
2024/03/02 05:10:04;;;;;;;1.88;1.23;;;21.40;99.90;;;;;;4936000;29;20350;-42
2024/03/02 05:15:13;;;;;;;1.20;1.10;;;21.40;99.90;;;;;;4955112;28;20039;-49
2024/03/02 05:17:45;;;;;;;1.23;0.95;;;21.40;99.90;;;;;;4938857;29;20032;-41
2024/03/02 05:20:11;;;;;;;2.15;1.10;;;21.40;99.90;;;;;;4939610;29;20098;-42
2024/03/02 05:22:37;;;;;;;2.58;1.48;;;21.40;99.90;;;;;;4957837;29;20031;-41
2024/03/02 05:25:05;;;;;;;4.65;1.25;;;21.40;99.90;;;;;;4957676;28;20024;-42
2024/03/02 05:27:32;;;;;;;2.58;1.38;;;21.30;99.90;;;;;;4957663;28;20095;-41
2024/03/02 05:29:59;;;;;;;1.98;1.20;;;21.30;99.90;;;;;;4957707;28;20062;-42
2024/03/02 05:32:24;;;;;;;2.60;1.30;;;21.30;99.90;;;;;;4957675;28;20130;-41
2024/03/02 05:34:50;;;;;;;2.38;1.63;;;21.30;99.90;;;;;;4957711;28;20106;-42
2024/03/02 05:37:17;;;;;;;3.10;1.05;;;21.30;99.90;;;;;;4957619;28;20111;-42
2024/03/02 05:39:45;;;;;;;2.53;0.90;;;21.30;99.90;;;;;;4940525;29;20106;-43
2024/03/02 05:42:12;;;;;;;1.95;1.00;;;21.30;99.90;;;;;;4940624;29;20514;-42
2024/03/02 05:44:37;;;;;;;2.40;1.00;;;21.30;99.90;;;;;;4921349;29;20465;-42
2024/03/02 05:47:04;;;;;;;2.53;1.40;;;21.30;99.90;;;;;;4938309;29;20075;-41
2024/03/02 05:49:30;;;;;;;4.85;1.55;;;21.30;99.90;;;;;;4921001;29;20211;-41
2024/03/02 05:51:56;;;;;;;3.03;1.25;;;21.30;99.90;;;;;;4938551;29;20071;-42
2024/03/02 05:54:22;;;;;;;2.80;1.33;;;21.20;99.90;;;;;;4938162;29;20558;-42
2024/03/02 05:56:47;;;;;;;4.15;1.20;;;21.20;99.90;;;;;;4938104;29;20054;-42
2024/03/02 05:59:13;;;;;;;3.55;1.30;;;21.20;99.90;;;;;;4937995;29;20023;-42
2024/03/02 06:01:40;;;;;;;1.92;1.27;;;21.20;99.90;;;;;;4949644;29;20052;-42
2024/03/02 06:04:06;;;;;;;2.17;1.35;;;21.20;99.90;;;;;;4957105;29;20496;-42
2024/03/02 06:06:33;;;;;;;1.45;1.20;;;21.20;99.90;;;;;;4957088;29;20074;-42
2024/03/02 06:09:00;;;;;;;1.52;1.08;;;21.20;99.90;;;;;;4939742;29;20037;-42
2024/03/02 06:11:26;;;;;;;3.10;1.58;;;21.10;99.90;;;;;;4956878;28;20125;-42
2024/03/02 06:13:52;;;;;;;2.03;1.02;;;21.20;99.90;;;;;;4956885;29;20054;-42
2024/03/02 06:16:17;;;;;;;2.25;1.20;;;21.20;99.90;;;;;;4956906;28;20042;-43
2024/03/02 06:18:43;;;;;;;3.42;1.20;;;21.10;99.90;;;;;;4956637;28;20034;-42
2024/03/02 06:21:09;;;;;;;5.32;1.33;;;21.10;99.90;;;;;;4949001;29;20062;-42
2024/03/02 06:23:35;;;;;;;3.30;1.58;;;21.10;99.90;;;;;;4937041;29;20027;-42
2024/03/02 06:26:02;;;;;;;2.97;1.13;;;21.10;99.90;;;;;;4937300;29;20036;-42
2024/03/02 06:28:28;;;;;;;3.53;1.03;;;21.10;99.90;;;;;;4937641;29;20038;-42
2024/03/02 06:30:54;;;;;;;2.20;1.02;;;21.10;99.90;;;;;;4925783;29;20305;-42
2024/03/02 06:33:20;;;;;;;1.77;1.05;;;21.10;99.90;;;;;;4941703;28;20091;-42
2024/03/02 06:35:46;;;;;;;2.83;1.30;;;21.10;99.90;;;;;;4937198;29;20111;-41
2024/03/02 06:38:11;;;;;;;2.50;0.90;;;21.10;99.90;;;;;;4920137;29;20032;-41
2024/03/02 06:40:40;;;;;;;2.60;0.98;;;21.10;99.90;;;;;;4939849;29;20031;-41
2024/03/02 06:43:06;;;;;;;3.05;1.27;;;21.10;99.90;;;;;;4956386;29;20118;-42
2024/03/02 06:45:34;;;;;;;2.30;1.30;;;21.00;99.90;;;;;;4956344;28;20511;-41
2024/03/02 06:47:59;;;;;;;;;;;21.10;99.90;;;;;;4956711;29;20027;-42
2024/03/02 06:50:25;;;;;;;3.90;1.27;;;21.10;99.90;;;;;;4956307;28;20343;-42
2024/03/02 06:52:51;;;;;;;1.88;0.73;;;21.00;99.90;;;;;;4938970;29;20039;-41
2024/03/02 06:55:17;;;;;;;1.92;0.93;;;21.00;99.90;;;;;;4956279;28;20027;-42
2024/03/02 06:57:43;;;;;;;2.30;1.10;;;21.00;99.90;;;;;;4956103;29;20035;-41
2024/03/02 07:00:09;;;;;;;2.30;1.02;;;21.00;99.90;;;;;;4955939;28;20031;-42
2024/03/02 07:02:36;;;;;;;4.03;1.33;;;21.00;99.90;;;;;;4972552;28;20393;-41
2024/03/02 07:05:02;;;;;;;1.97;1.10;;;21.00;99.90;;;;;;4975250;28;20102;-42
2024/03/02 07:07:29;;;;;;;4.63;1.42;;;21.00;99.90;;;;;;4975328;28;20035;-41
2024/03/02 07:09:54;;;;;;;4.30;1.10;;;21.00;99.90;;;;;;4957914;28;20034;-42
2024/03/02 07:12:20;;;;;;;2.88;0.98;;;21.00;99.90;;;;;;4973979;28;20390;-41
2024/03/02 07:15:11;;;;;;;1.42;1.00;;;21.00;99.90;;;;;;4975044;28;20542;-42
2024/03/02 07:17:37;;;;;;;3.13;1.25;;;21.00;99.90;;;;;;4974973;28;20035;-42
2024/03/02 07:20:06;;;;;;;3.50;0.90;;;21.00;99.90;;;;;;4975156;28;20054;-42
2024/03/02 07:22:33;;;;;;;1.75;0.90;;;21.00;99.90;;;;;;4969565;28;20039;-42
2024/03/02 07:24:59;;;;;;;1.95;1.25;;;21.00;99.90;;;;;;4938891;29;20027;-42
2024/03/02 07:27:24;;;;;;;2.17;1.45;;;21.00;99.90;;;;;;4955649;29;20491;-42
2024/03/02 07:29:50;;;;;;;3.38;1.00;;;21.00;99.90;;;;;;4938195;29;20483;-42
2024/03/02 07:32:16;;;;;;;2.65;1.23;;;21.00;99.90;;;;;;4952184;28;20035;-42
2024/03/02 07:34:42;;;;;;;1.85;1.08;;;21.00;99.90;;;;;;4974128;28;20019;-42
2024/03/02 07:37:08;;;;;;;2.60;1.10;;;21.10;99.90;;;;;;4974325;28;20446;-40
2024/03/02 07:39:33;;;;;;;2.67;1.23;;;21.00;99.90;;;;;;4974749;28;20467;-41
2024/03/02 07:42:00;;;;;;;2.10;1.08;;;21.10;99.90;;;;;;4973621;28;20042;-42
2024/03/02 07:44:26;;;;;;;1.90;1.15;;;21.10;99.90;;;;;;4974568;28;20090;-45
2024/03/02 07:46:52;;;;;;;4.97;1.25;;;21.10;99.90;;;;;;4974329;28;20535;-42
2024/03/02 07:49:21;;;;;;;3.00;1.20;;;21.10;99.90;;;;;;4974352;28;20110;-41
2024/03/02 07:51:46;;;;;;;2.38;1.20;;;21.10;99.90;;;;;;4963623;28;20038;-42
2024/03/02 07:54:12;;;;;;;2.53;1.10;;;21.10;99.90;;;;;;4955066;28;20388;-41
2024/03/02 07:56:38;;;;;;;1.95;1.10;;;21.20;99.90;;;;;;4955047;29;20030;-42
2024/03/02 07:59:04;;;;;;;2.25;1.27;;;21.20;99.90;;;;;;4955010;29;20102;-41
2024/03/02 08:01:32;;;;;;;4.22;1.55;;;21.20;99.90;;;;;;4961420;28;20113;-42
2024/03/02 08:04:03;;;;;;;2.25;1.25;;;21.20;99.90;;;;;;4974467;28;20033;-41
2024/03/02 08:06:29;;;;;;;2.72;1.33;;;21.20;99.90;;;;;;4974262;28;20027;-41
2024/03/02 08:08:59;;;;;;;2.97;1.33;;;21.20;99.90;;;;;;4956842;28;20125;-41
2024/03/02 08:11:27;;;;;;;1.67;1.10;;;21.30;99.90;;;;;;4972920;28;20031;-41
2024/03/02 08:13:54;;;;;;;1.85;1.25;;;21.20;99.90;;;;;;4973972;28;20015;-41
2024/03/02 08:16:21;;;;;;;2.63;1.08;;;21.30;99.90;;;;;;4974542;28;20440;-41
2024/03/02 08:18:50;;;;;;;1.40;1.00;;;21.30;99.90;;;;;;4974480;28;20023;-41
2024/03/02 08:21:16;;;;;;;2.38;1.52;;;21.30;99.90;;;;;;4945950;29;20281;-43
2024/03/02 08:23:45;;;;;;;1.70;1.08;;;21.30;99.90;;;;;;4935211;29;20035;-41
2024/03/02 08:26:12;;;;;;;5.68;1.60;;;21.30;99.90;;;;;;4935297;29;20024;-42
2024/03/02 08:28:40;;;;;;;2.25;1.10;;;21.40;99.90;;;;;;4918037;29;20104;-41
2024/03/02 08:31:06;;;;;;;1.88;1.42;;;21.40;99.90;;;;;;4941547;28;20037;-41
2024/03/02 08:33:32;;;;;;;3.10;1.42;;;21.40;99.90;;;;;;4956642;28;20037;-41
2024/03/02 08:35:58;;;;;;;2.28;1.10;;;21.40;99.90;;;;;;4973678;28;20470;-41
2024/03/02 08:38:24;;;;;;;2.85;1.08;;;21.40;99.90;;;;;;4973591;28;20038;-41
2024/03/02 08:40:51;;;;;;;6.93;1.20;;;21.40;99.90;;;;;;4972417;28;20122;-41
2024/03/02 08:43:17;;;;;;;2.33;1.15;;;21.40;99.90;;;;;;4973490;28;20046;-40
2024/03/02 08:45:43;;;;;;;3.22;1.42;;;21.40;99.90;;;;;;4973667;28;20027;-41
2024/03/02 08:48:09;;;;;;;1.65;1.15;;;21.40;99.90;;;;;;4973464;28;20023;-41
2024/03/02 08:50:35;;;;;;;1.83;1.15;;;21.50;99.90;;;;;;4955011;28;20399;-42
2024/03/02 08:53:02;;;;;;;2.55;1.33;;;21.50;99.90;;;;;;4973546;28;20023;-41
2024/03/02 08:55:28;;;;;;;3.00;1.40;;;21.50;99.90;;;;;;4973444;28;20023;-42
2024/03/02 08:57:54;;;;;;;3.10;1.63;;;21.50;99.90;;;;;;4973439;28;20045;-41
2024/03/02 09:00:20;;;;;;;2.83;1.27;;;21.50;99.90;;;;;;4973219;28;20038;-41
2024/03/02 09:02:45;;;;;;;3.40;1.55;;;21.50;99.90;;;;;;4964305;28;20054;-41
2024/03/02 09:05:12;;;;;;;2.53;1.42;;;21.50;99.90;;;;;;4973475;28;20106;-41
2024/03/02 09:07:38;;;;;;;4.45;2.05;;;21.50;99.90;;;;;;4973328;28;20037;-41
2024/03/02 09:10:08;;;;;;;4.68;1.63;;;21.50;99.90;;;;;;4955285;28;20028;-42
2024/03/02 09:12:35;;;;;;;3.25;1.75;;;21.60;99.90;;;;;;4953358;28;20023;-41
2024/03/02 09:15:03;;;;;;;4.28;1.73;;;21.50;99.90;;;;;;4954221;28;20027;-41
2024/03/02 09:17:29;;;;;;;3.70;1.60;;;21.60;99.90;;;;;;4953986;28;20380;-42
2024/03/02 09:19:55;;;;;;;4.53;2.17;;;21.60;99.90;;;;;;4960355;28;20463;-41
2024/03/02 09:22:21;;;;;;;4.05;1.73;;;21.60;99.90;;;;;;4973220;28;20074;-41
2024/03/02 09:24:47;;;;;;;2.80;1.70;;;21.60;99.90;;;;;;4973040;28;20019;-41
2024/03/02 09:27:13;;;;;;;3.30;1.50;;;21.60;99.90;;;;;;4965157;28;20114;-40
2024/03/02 09:29:39;;;;;;;2.80;1.50;;;21.60;99.90;;;;;;4957620;28;20019;-41
2024/03/02 09:32:06;;;;;;;4.35;1.98;;;21.60;99.90;;;;;;4973467;28;20058;-40
2024/03/02 09:34:32;;;;;;;2.85;1.58;;;21.70;99.90;;;;;;4971770;28;20038;-42
2024/03/02 09:36:58;;;;;;;4.18;1.55;;;21.70;99.90;;;;;;4973163;28;20035;-39
2024/03/02 09:39:25;;;;;;;3.70;1.58;;;21.70;99.90;;;;;;4971921;28;20119;-39
2024/03/02 09:41:51;;;;;;;5.03;1.88;;;21.70;99.90;;;;;;4973000;28;20039;-39
2024/03/02 09:44:17;;;;;;;5.68;1.90;;;21.70;99.90;;;;;;4972905;28;20031;-42
2024/03/02 09:46:43;;;;;;;5.20;2.00;;;21.70;99.90;;;;;;4973044;28;20023;-42
2024/03/02 09:49:12;;;;;;;5.07;1.50;;;21.80;99.90;;;;;;4971730;28;20023;-41
2024/03/02 09:51:39;;;;;;;5.82;1.77;;;21.80;99.90;;;;;;4964655;28;20036;-41
2024/03/02 09:54:07;;;;;;;5.30;1.70;;;21.80;99.90;;;;;;4951207;28;20023;-43
2024/03/02 09:56:33;;;;;;;8.05;1.88;;;21.80;99.90;;;;;;4953989;28;20444;-42
2024/03/02 09:58:59;;;;;;;3.78;1.60;;;21.80;99.90;;;;;;4947757;28;20031;-40
2024/03/02 10:01:25;;;;;;;6.60;2.05;;;21.90;99.90;;;;;;4946256;29;20071;-41
2024/03/02 10:03:53;;;;;;;6.00;2.15;;;21.90;99.90;;;;;;4947635;28;20425;-41
2024/03/02 10:06:19;;;;;;;4.97;1.95;;;21.90;99.90;;;;;;4930823;29;20055;-41
2024/03/02 10:08:45;;;;;;;3.73;2.13;;;21.90;99.90;;;;;;4946065;29;20027;-40
2024/03/02 10:11:23;;;;;;;4.50;1.70;;;22.00;99.90;;;;;;4947496;29;20034;-41
2024/03/02 10:13:49;;;;;;;5.30;1.70;;;22.00;99.90;;;;;;4946476;28;20032;-40
2024/03/02 10:16:17;;;;;;;4.70;1.95;;;22.00;99.90;;;;;;4946739;29;20383;-39
2024/03/02 10:18:42;;;;;;;3.75;1.70;;;22.10;99.90;;;;;;4947600;28;20031;-40
2024/03/02 10:21:15;;;;;;;5.43;1.70;;;22.10;99.90;;;;;;4942571;29;20020;-42
2024/03/02 10:23:40;;;;;;;5.82;2.25;;;22.10;99.90;;;;;;4964365;28;20057;-43
2024/03/02 10:26:19;;;;;;;4.22;2.03;;;22.20;99.90;;;;;;4975996;28;20023;-43
2024/03/02 10:28:47;;;;;;;3.55;1.50;;;22.20;99.90;;;;;;4976026;28;20380;-42
2024/03/02 10:31:14;;;;;;;2.65;1.40;;;22.20;99.90;;;;;;4975861;28;20030;-43
2024/03/02 10:33:40;;;;;;;3.65;1.35;;;22.10;99.90;;;;;;4974882;28;20031;-43
2024/03/02 10:36:07;;;;;;;6.80;2.30;;;22.10;99.90;;;;;;4946471;28;20078;-42
2024/03/02 10:38:33;;;;;;;4.50;1.75;;;22.10;99.90;;;;;;4950132;28;20492;-43
2024/03/02 10:41:00;;;;;;;4.88;2.28;;;22.10;99.90;;;;;;4945544;28;20015;-43
2024/03/02 10:43:26;;;;;;;6.67;2.67;;;22.10;99.90;;;;;;4945958;29;20027;-45
2024/03/02 10:45:54;;;;;;;4.22;2.10;;;22.10;99.90;;;;;;4947189;28;20101;-43
2024/03/02 10:48:21;;;;;;;6.53;2.10;;;22.20;99.90;;;;;;4939429;29;20027;-44
2024/03/02 10:50:47;;;;;;;9.27;2.88;;;22.20;99.90;;;;;;4949886;28;20023;-42
2024/03/02 10:53:13;;;;;;;3.95;1.85;;;22.30;99.90;;;;;;4939060;28;20082;-43
2024/03/02 10:55:39;;;;;;;5.22;2.42;;;22.30;99.90;;;;;;4956489;29;20395;-42
2024/03/02 10:58:06;;;;;;;7.07;2.42;;;22.30;99.90;;;;;;4955837;28;20023;-43
2024/03/02 11:00:36;;;;;;;5.68;3.10;;;22.30;99.90;;;;;;4953565;29;20090;-43
2024/03/02 11:03:06;;;;;;;7.57;2.90;;;22.30;99.90;;;;;;4955534;28;20081;-43
2024/03/02 11:05:35;;;;;;;8.30;2.70;;;22.30;99.90;;;;;;4938050;29;20030;-43
2024/03/02 11:08:06;;;;;;;8.52;2.70;;;22.40;99.90;;;;;;4955799;28;20095;-43
2024/03/02 11:10:41;;;;;;;12.30;3.30;;;22.40;99.90;;;;;;4954525;28;20058;-43
2024/03/02 11:13:11;;;;;;;6.97;2.70;;;22.40;99.90;;;;;;4954405;28;20031;-43
2024/03/02 11:15:37;;;;;;;6.25;2.55;;;22.40;99.90;;;;;;4936603;29;20055;-43
2024/03/02 11:18:08;;;;;;;6.88;2.78;;;22.40;99.90;;;;;;4936582;29;20190;-43
2024/03/02 11:20:39;;;;;;;10.35;3.05;;;22.40;99.90;;;;;;4936390;29;20103;-43
2024/03/02 11:23:06;;;;;;;6.05;2.70;;;22.40;99.90;;;;;;4938580;29;20031;-42
2024/03/02 11:25:32;;;;;;;3.85;2.33;;;22.40;99.90;;;;;;4945386;29;20429;-43
2024/03/02 11:28:06;;;;;;;6.68;3.67;;;22.40;99.90;;;;;;4955444;28;20039;-44
2024/03/02 11:30:36;;;;;;;7.38;2.83;;;22.40;99.90;;;;;;4938129;29;20019;-44
2024/03/02 11:33:10;;;;;;;12.88;3.03;;;22.50;99.90;;;;;;4946679;28;20051;-42
2024/03/02 11:35:39;;;;;;;8.25;3.60;;;22.50;99.90;;;;;;4939032;28;20488;-45
2024/03/02 11:38:07;;;;;;;5.82;3.67;;;22.40;99.90;;;;;;4950015;29;20023;-43
2024/03/02 11:40:32;;;;;;;8.13;2.97;;;22.50;99.90;;;;;;4936092;29;20155;-43
2024/03/02 11:43:02;;;;;;;8.13;3.45;;;22.50;99.90;;;;;;4936154;29;20567;-43
2024/03/02 11:45:28;;;;;;;9.20;3.50;;;22.50;99.90;;;;;;4935913;29;20020;-43
2024/03/02 11:47:55;;;;;;;9.60;4.15;;;22.40;99.90;;;;;;4935940;29;20384;-43
2024/03/02 11:50:33;;;;;;;14.03;3.83;;;22.40;99.90;;;;;;4905449;29;20031;-43
2024/03/02 11:53:00;;;;;;;5.38;3.55;;;22.40;99.90;;;;;;4949752;28;20753;-45
2024/03/02 11:55:26;;;;;;;7.25;3.85;;;22.40;99.90;;;;;;4951514;29;20388;-43
2024/03/02 11:57:55;;;;;;;9.95;3.20;;;22.40;99.90;;;;;;4953037;29;20420;-43
2024/03/02 12:00:21;;;;;;;7.30;3.50;;;22.40;99.90;;;;;;4944047;29;20042;-42
2024/03/02 12:03:17;;;;;;;10.57;3.33;;;22.40;99.90;;;;;;4954153;28;20047;-43
2024/03/02 12:05:43;;;;;;;9.30;2.97;;;22.40;99.90;;;;;;4938356;29;20038;-41
2024/03/02 12:08:12;;;;;;;7.05;3.47;;;22.40;99.90;;;;;;4945965;29;20023;-42
2024/03/02 12:10:38;;;;;;;5.05;3.40;;;22.50;99.90;;;;;;4954863;29;20094;-42
2024/03/02 12:13:10;;;;;;;6.85;2.95;;;22.50;99.90;;;;;;4950153;29;20380;-41
2024/03/02 12:15:38;;;;;;;4.00;2.80;;;22.50;99.90;;;;;;4944269;29;20019;-41
2024/03/02 12:18:04;;;;;;;10.45;3.00;;;22.50;99.90;;;;;;4943826;29;20031;-42
2024/03/02 12:20:31;;;;;;;5.72;3.03;;;22.50;99.90;;;;;;4954378;29;20106;-43
2024/03/02 12:23:04;;;;;;;8.02;3.45;;;22.50;99.90;;;;;;4954202;28;20035;-42
2024/03/02 12:25:33;;;;;;;6.28;2.88;;;22.50;99.90;;;;;;4954534;28;20106;-42
2024/03/02 12:28:01;;;;;;;5.07;2.97;;;22.50;99.90;;;;;;4947854;28;20024;-41
2024/03/02 12:30:30;;;;;;;6.80;2.85;;;22.50;99.90;;;;;;4936953;29;20019;-43
2024/03/02 12:32:55;;;;;;;4.10;2.45;;;22.60;99.90;;;;;;4954304;29;20031;-42
2024/03/02 12:35:22;;;;;;;4.50;2.25;;;22.60;99.90;;;;;;4948992;29;20031;-43
2024/03/02 12:37:49;;;;;;;5.45;2.53;;;22.60;99.90;;;;;;4932886;29;20032;-43
2024/03/02 12:40:18;;;;;;;7.97;2.47;;;22.60;99.90;;;;;;4935093;29;20041;-42
2024/03/02 12:42:44;;;;;;;7.43;2.97;;;22.60;99.90;;;;;;4935226;29;20047;-43
2024/03/02 12:45:11;;;;;;;3.42;2.10;;;22.70;99.90;;;;;;4935063;29;20034;-43
2024/03/02 12:47:39;;;;;;;6.57;2.33;;;22.70;99.90;;;;;;4948659;28;20114;-48
2024/03/02 12:50:05;;;;;;;6.70;2.75;;;22.70;99.90;;;;;;4933896;28;20079;-42